Time;durP1;ratioP1;P1;durP2;ratioP2;P2;SDS_P1;SDS_P2;PMS_P1;PMS_P2;Temp;Humidity;BMP_temperature;BMP_pressure;BME280_temperature;BME280_humidity;BME280_pressure;Samples;Min_cycle;Max_cycle;Signal;HPM_P1;HPM_P2
2021/12/31 00:00:51;;;;;;;0.70;0.50;;;16.70;64.20;;;;;;4980735;28;20600;-55
2021/12/31 00:03:18;;;;;;;2.25;0.65;;;16.70;64.30;;;;;;4980870;28;20097;-55
2021/12/31 00:05:44;;;;;;;2.00;0.47;;;16.60;64.20;;;;;;4982214;28;20037;-57
2021/12/31 00:08:10;;;;;;;3.80;0.50;;;16.70;64.20;;;;;;4981620;28;20046;-57
2021/12/31 00:10:38;;;;;;;1.83;0.70;;;16.70;64.30;;;;;;4982497;28;20026;-58
2021/12/31 00:13:04;;;;;;;2.47;0.68;;;16.60;64.20;;;;;;4981896;28;20050;-55
2021/12/31 00:15:30;;;;;;;1.88;0.68;;;16.70;64.30;;;;;;4982963;28;20041;-55
2021/12/31 00:17:56;;;;;;;3.70;0.88;;;16.60;64.20;;;;;;4980128;28;20027;-57
2021/12/31 00:20:24;;;;;;;1.95;0.63;;;16.60;64.30;;;;;;4979853;28;20034;-53
2021/12/31 00:25:23;;;;;;;1.60;0.68;;;16.60;64.20;;;;;;4982638;28;20030;-53
2021/12/31 00:27:49;;;;;;;3.15;0.45;;;16.60;64.10;;;;;;4962284;28;20050;-57
2021/12/31 00:30:16;;;;;;;1.70;0.68;;;16.60;64.10;;;;;;4982765;28;20085;-55
2021/12/31 00:32:43;;;;;;;2.50;1.20;;;16.60;64.00;;;;;;4980927;28;20490;-57
2021/12/31 00:35:09;;;;;;;4.53;0.88;;;16.60;64.00;;;;;;4982131;28;20038;-52
2021/12/31 00:37:38;;;;;;;4.32;1.00;;;16.60;64.00;;;;;;4981168;28;20038;-57
2021/12/31 00:40:08;;;;;;;4.38;0.90;;;16.60;63.90;;;;;;4964319;28;20041;-55
2021/12/31 00:42:35;;;;;;;6.68;0.90;;;16.60;63.90;;;;;;4977737;28;20034;-57
2021/12/31 00:45:02;;;;;;;7.75;0.60;;;16.50;63.80;;;;;;4980771;28;20022;-54
2021/12/31 00:47:28;;;;;;;2.90;0.95;;;16.60;64.00;;;;;;4978696;28;20026;-56
2021/12/31 00:49:54;;;;;;;2.40;0.77;;;16.50;63.80;;;;;;4981886;28;20390;-53
2021/12/31 00:52:20;;;;;;;1.80;0.88;;;16.50;63.80;;;;;;4981158;28;20026;-55
2021/12/31 00:54:46;;;;;;;3.33;0.90;;;16.50;63.70;;;;;;4982644;28;20026;-57
2021/12/31 00:57:13;;;;;;;5.03;1.05;;;16.50;63.70;;;;;;4980153;28;20030;-54
2021/12/31 00:59:40;;;;;;;3.38;0.82;;;16.50;63.60;;;;;;4980104;28;20023;-56
2021/12/31 01:02:07;;;;;;;7.50;1.20;;;16.50;63.60;;;;;;4978844;28;20026;-57
2021/12/31 01:04:34;;;;;;;2.45;0.88;;;16.50;63.50;;;;;;4983030;28;20023;-54
2021/12/31 01:07:03;;;;;;;10.73;1.20;;;16.50;63.50;;;;;;4962070;28;20037;-57
2021/12/31 01:09:30;;;;;;;3.47;1.10;;;16.50;63.50;;;;;;4960556;28;20049;-56
2021/12/31 01:11:58;;;;;;;5.70;1.23;;;16.50;63.50;;;;;;4981648;28;20029;-55
2021/12/31 01:14:33;;;;;;;5.85;1.20;;;16.50;63.40;;;;;;4980916;28;20038;-57
2021/12/31 01:17:05;;;;;;;2.50;0.98;;;16.50;63.40;;;;;;4978682;28;20050;-56
2021/12/31 01:20:05;;;;;;;2.67;1.10;;;16.50;63.30;;;;;;4982231;28;20050;-55
2021/12/31 01:22:29;;;;;;;2.33;0.88;;;16.50;63.30;;;;;;4974774;28;20038;-57
2021/12/31 01:24:55;;;;;;;3.35;0.80;;;16.50;63.30;;;;;;4979365;28;20368;-56
2021/12/31 01:27:22;;;;;;;2.80;0.95;;;16.50;63.30;;;;;;4979176;28;20030;-57
2021/12/31 01:29:48;;;;;;;7.95;1.40;;;16.50;63.40;;;;;;4980715;28;20050;-55
2021/12/31 01:32:14;;;;;;;4.05;1.15;;;16.50;63.30;;;;;;4979784;28;20026;-55
2021/12/31 01:34:41;;;;;;;3.95;1.05;;;16.50;63.30;;;;;;4981993;28;20034;-56
2021/12/31 01:37:08;;;;;;;2.35;0.90;;;16.50;63.30;;;;;;4977511;28;20043;-57
2021/12/31 01:39:35;;;;;;;2.80;0.93;;;16.50;63.20;;;;;;4978444;28;20025;-57
2021/12/31 01:42:03;;;;;;;5.75;1.25;;;16.50;63.20;;;;;;4980523;28;20023;-56
2021/12/31 01:44:44;;;;;;;5.80;1.20;;;16.50;63.10;;;;;;4980403;28;20497;-58
2021/12/31 01:47:15;;;;;;;4.72;1.40;;;16.50;63.20;;;;;;4977850;28;20371;-58
2021/12/31 01:49:54;;;;;;;6.03;1.13;;;16.50;63.10;;;;;;4981283;28;20041;-59
2021/12/31 01:52:21;;;;;;;1.55;0.88;;;16.50;63.00;;;;;;4979324;28;20029;-59
2021/12/31 01:54:48;;;;;;;2.85;1.00;;;16.50;63.00;;;;;;4981282;28;20029;-58
2021/12/31 01:57:14;;;;;;;3.83;1.33;;;16.50;63.10;;;;;;4979001;28;20033;-58
2021/12/31 01:59:42;;;;;;;4.90;1.58;;;16.50;63.00;;;;;;4981394;28;20465;-55
2021/12/31 02:02:09;;;;;;;3.05;1.27;;;16.50;62.90;;;;;;4977548;28;20035;-58
2021/12/31 02:04:38;;;;;;;5.13;1.15;;;16.50;62.70;;;;;;4980763;28;20027;-57
2021/12/31 02:07:05;;;;;;;3.92;1.20;;;16.50;62.70;;;;;;4980378;28;20058;-56
2021/12/31 02:09:38;;;;;;;2.55;1.27;;;16.50;62.70;;;;;;4978240;28;20487;-57
2021/12/31 02:12:05;;;;;;;3.47;1.40;;;16.50;62.70;;;;;;4982554;28;20031;-58
2021/12/31 02:14:32;;;;;;;5.68;1.10;;;16.50;62.60;;;;;;4984563;28;20038;-58
2021/12/31 02:16:58;;;;;;;2.17;1.20;;;16.50;62.60;;;;;;4981867;28;20038;-57
2021/12/31 02:19:28;;;;;;;5.30;1.23;;;16.50;62.50;;;;;;4980831;28;20495;-59
2021/12/31 02:21:56;;;;;;;7.03;1.60;;;16.50;62.50;;;;;;4983599;28;20042;-56
2021/12/31 02:24:23;;;;;;;5.38;1.55;;;16.50;62.50;;;;;;4982846;28;20046;-59
2021/12/31 02:26:50;;;;;;;4.32;1.05;;;16.50;62.40;;;;;;4984025;28;20053;-58
2021/12/31 02:29:17;;;;;;;5.05;1.30;;;16.50;62.40;;;;;;4981728;28;20414;-58
2021/12/31 02:31:43;;;;;;;4.78;0.88;;;16.50;62.40;;;;;;4963420;28;20042;-58
2021/12/31 02:34:10;;;;;;;3.58;1.25;;;16.50;62.30;;;;;;4982658;28;20042;-57
2021/12/31 02:36:37;;;;;;;4.65;2.03;;;16.50;62.30;;;;;;4982802;28;20036;-57
2021/12/31 02:39:04;;;;;;;6.15;1.13;;;16.50;62.30;;;;;;4976806;28;20030;-57
2021/12/31 02:41:31;;;;;;;4.28;1.17;;;16.50;62.20;;;;;;4982228;28;20038;-56
2021/12/31 02:43:57;;;;;;;1.92;1.00;;;16.50;62.20;;;;;;4983858;28;20521;-57
2021/12/31 02:46:23;;;;;;;3.58;1.10;;;16.50;62.10;;;;;;4982377;28;20057;-57
2021/12/31 02:52:13;;;;;;;4.05;1.20;;;16.50;62.00;;;;;;4991518;28;20049;-58
2021/12/31 02:54:43;;;;;;;4.70;1.73;;;16.50;61.90;;;;;;4983824;28;20030;-59
2021/12/31 02:57:11;;;;;;;3.00;1.15;;;16.50;61.90;;;;;;4981732;28;20041;-57
2021/12/31 02:59:37;;;;;;;3.70;1.08;;;16.50;62.00;;;;;;4981351;28;20030;-57
2021/12/31 03:02:06;;;;;;;2.90;1.15;;;16.50;61.90;;;;;;4961123;28;20042;-57
2021/12/31 03:04:39;;;;;;;2.85;1.10;;;16.50;61.80;;;;;;4979801;28;20031;-54
2021/12/31 03:07:07;;;;;;;4.03;0.90;;;16.50;61.60;;;;;;4982815;28;21006;-55
2021/12/31 03:09:37;;;;;;;8.23;1.38;;;16.50;61.60;;;;;;4982394;28;20034;-54
2021/12/31 03:12:04;;;;;;;3.40;1.02;;;16.50;61.50;;;;;;4983953;28;20026;-55
2021/12/31 03:14:31;;;;;;;4.13;1.08;;;16.50;61.30;;;;;;4981960;28;20415;-57
2021/12/31 03:17:00;;;;;;;5.03;1.40;;;16.50;61.20;;;;;;4981452;28;20026;-55
2021/12/31 03:19:26;;;;;;;4.78;1.13;;;16.50;61.20;;;;;;4982358;28;20022;-56
2021/12/31 03:21:52;;;;;;;4.07;1.42;;;16.50;61.10;;;;;;4982644;28;20022;-55
2021/12/31 03:24:18;;;;;;;1.67;0.85;;;16.50;61.10;;;;;;4963868;28;20509;-55
2021/12/31 03:26:44;;;;;;;4.47;1.20;;;16.50;61.10;;;;;;4982872;28;20030;-55
2021/12/31 03:29:11;;;;;;;3.78;1.45;;;16.50;61.00;;;;;;4978921;28;20386;-57
2021/12/31 03:31:37;;;;;;;5.28;1.55;;;16.50;61.00;;;;;;4982289;28;20030;-57
2021/12/31 03:34:03;;;;;;;4.43;1.38;;;16.50;60.90;;;;;;4981449;28;20390;-55
2021/12/31 03:36:29;;;;;;;3.88;1.00;;;16.50;60.90;;;;;;4982249;28;21244;-53
2021/12/31 03:38:56;;;;;;;5.07;1.25;;;16.50;60.80;;;;;;4980436;28;20027;-57
2021/12/31 03:41:22;;;;;;;2.90;0.77;;;16.50;60.90;;;;;;4982838;28;20026;-55
2021/12/31 03:43:48;;;;;;;3.70;1.10;;;16.50;60.80;;;;;;4983171;28;20034;-55
2021/12/31 03:46:14;;;;;;;2.72;1.10;;;16.50;60.70;;;;;;4981725;28;20037;-57
2021/12/31 03:48:41;;;;;;;4.88;1.17;;;16.50;60.70;;;;;;4978739;28;20045;-55
2021/12/31 03:51:07;;;;;;;3.80;1.13;;;16.50;60.60;;;;;;4982302;28;20815;-57
2021/12/31 03:53:33;;;;;;;3.63;1.10;;;16.50;60.50;;;;;;4983933;28;20037;-56
2021/12/31 03:55:59;;;;;;;2.33;0.85;;;16.50;60.50;;;;;;4981850;28;20034;-55
2021/12/31 03:58:25;;;;;;;3.22;0.90;;;16.50;60.50;;;;;;4960282;28;20556;-55
2021/12/31 04:00:51;;;;;;;3.13;0.88;;;16.50;60.50;;;;;;4979997;28;20034;-56
2021/12/31 04:03:18;;;;;;;2.47;0.63;;;16.50;60.50;;;;;;4980798;28;20030;-55
2021/12/31 04:05:44;;;;;;;3.33;0.90;;;16.50;60.50;;;;;;4982563;28;20045;-55
2021/12/31 04:08:11;;;;;;;3.45;1.27;;;16.50;60.50;;;;;;4979894;28;20038;-56
2021/12/31 04:10:37;;;;;;;3.38;1.20;;;16.50;60.50;;;;;;4980271;28;20039;-58
2021/12/31 04:13:03;;;;;;;5.72;1.30;;;16.50;60.40;;;;;;4981247;28;20037;-54
2021/12/31 04:15:30;;;;;;;4.72;1.25;;;16.40;60.30;;;;;;4958139;28;20582;-55
2021/12/31 04:17:56;;;;;;;3.28;1.63;;;16.50;60.40;;;;;;4950160;28;20460;-57
2021/12/31 04:20:34;;;;;;;4.10;1.00;;;16.50;61.00;;;;;;4954278;28;20042;-56
2021/12/31 04:23:04;;;;;;;4.47;0.93;;;16.50;60.20;;;;;;4956181;28;20363;-55
2021/12/31 04:25:30;;;;;;;7.05;0.98;;;16.50;60.10;;;;;;4952905;28;20046;-55
2021/12/31 04:27:57;;;;;;;3.85;1.00;;;16.50;60.00;;;;;;4956492;28;20415;-55
2021/12/31 04:30:23;;;;;;;3.28;0.93;;;16.40;60.00;;;;;;4955437;28;20530;-57
2021/12/31 04:32:49;;;;;;;2.40;0.88;;;16.40;60.00;;;;;;4951944;28;20069;-55
2021/12/31 04:35:18;;;;;;;3.75;1.00;;;16.40;60.00;;;;;;4957753;28;20544;-55
2021/12/31 04:37:45;;;;;;;5.30;1.45;;;16.40;60.00;;;;;;4951525;28;20039;-57
2021/12/31 04:40:12;;;;;;;7.78;1.20;;;16.40;60.00;;;;;;4946902;28;20047;-56
2021/12/31 04:42:46;;;;;;;5.43;0.93;;;16.40;60.00;;;;;;4945649;28;20039;-57
2021/12/31 04:45:13;;;;;;;3.58;1.20;;;16.40;59.90;;;;;;4946451;28;20039;-55
2021/12/31 04:47:39;;;;;;;2.20;0.95;;;16.40;59.90;;;;;;4949486;28;20039;-55
2021/12/31 04:50:07;;;;;;;1.98;0.90;;;16.40;59.80;;;;;;4956705;28;20027;-57
2021/12/31 04:52:33;;;;;;;3.67;1.00;;;16.40;59.80;;;;;;4955201;28;20030;-57
2021/12/31 04:54:59;;;;;;;2.53;0.90;;;16.30;59.70;;;;;;4946343;28;20035;-55
2021/12/31 04:57:26;;;;;;;3.05;1.30;;;16.30;59.80;;;;;;4954292;28;20046;-57
2021/12/31 04:59:53;;;;;;;2.60;1.00;;;16.30;59.70;;;;;;4953718;28;20061;-55
2021/12/31 05:02:19;;;;;;;4.15;1.13;;;16.30;59.80;;;;;;4951900;28;20027;-54
2021/12/31 05:04:45;;;;;;;7.32;1.33;;;16.20;59.90;;;;;;4958464;28;20027;-55
2021/12/31 05:07:11;;;;;;;4.35;1.10;;;16.20;59.90;;;;;;4958226;28;20027;-54
2021/12/31 05:09:38;;;;;;;3.45;1.02;;;16.20;59.90;;;;;;4952852;28;20046;-57
2021/12/31 05:12:05;;;;;;;2.35;1.10;;;16.10;59.90;;;;;;4944084;28;20046;-57
2021/12/31 05:14:32;;;;;;;1.83;0.93;;;16.10;60.00;;;;;;4955804;28;20506;-57
2021/12/31 05:16:58;;;;;;;2.35;1.00;;;16.10;60.00;;;;;;4973219;28;20124;-55
2021/12/31 05:19:25;;;;;;;5.05;1.10;;;16.10;60.10;;;;;;4956023;28;20378;-55
2021/12/31 05:21:52;;;;;;;4.38;1.40;;;16.10;60.20;;;;;;4980700;28;20034;-55
2021/12/31 05:24:18;;;;;;;4.63;1.17;;;16.00;60.30;;;;;;4982898;28;20026;-57
2021/12/31 05:26:44;;;;;;;3.00;1.10;;;16.00;60.40;;;;;;4980715;28;20035;-56
2021/12/31 05:29:11;;;;;;;3.92;1.08;;;16.00;60.40;;;;;;4973782;28;20045;-54
2021/12/31 05:31:37;;;;;;;3.08;1.10;;;16.00;60.40;;;;;;4979753;28;20624;-57
2021/12/31 05:34:03;;;;;;;5.15;1.30;;;16.00;60.50;;;;;;4962055;28;20038;-57
2021/12/31 05:36:30;;;;;;;5.10;1.40;;;16.00;60.50;;;;;;4980249;28;20030;-57
2021/12/31 05:38:56;;;;;;;4.53;1.20;;;16.00;60.40;;;;;;4956623;28;20031;-54
2021/12/31 05:41:22;;;;;;;4.40;1.30;;;16.00;60.50;;;;;;4977619;28;20034;-55
2021/12/31 05:43:48;;;;;;;1.83;1.13;;;15.90;60.40;;;;;;4979083;28;20030;-54
2021/12/31 05:46:14;;;;;;;1.52;0.98;;;15.90;60.40;;;;;;4978950;28;20041;-56
2021/12/31 05:48:40;;;;;;;4.18;1.00;;;15.90;60.40;;;;;;4978210;28;20487;-57
2021/12/31 05:51:07;;;;;;;3.08;1.02;;;15.90;60.40;;;;;;4981019;28;20057;-57
2021/12/31 05:53:33;;;;;;;6.05;1.20;;;15.90;60.60;;;;;;4978738;28;20410;-56
2021/12/31 05:55:59;;;;;;;2.85;1.05;;;15.90;60.70;;;;;;4980289;28;20038;-57
2021/12/31 05:58:25;;;;;;;3.80;1.08;;;15.80;60.60;;;;;;4976767;28;20038;-58
2021/12/31 06:00:51;;;;;;;3.55;1.42;;;15.80;60.60;;;;;;4977870;28;20042;-55
2021/12/31 06:03:18;;;;;;;3.20;1.35;;;15.80;60.70;;;;;;4976169;28;20387;-57
2021/12/31 06:05:44;;;;;;;2.70;1.20;;;15.80;60.60;;;;;;4978055;28;20023;-57
2021/12/31 06:08:11;;;;;;;3.33;1.23;;;15.80;60.60;;;;;;4974358;28;20716;-56
2021/12/31 06:10:42;;;;;;;2.17;0.85;;;15.80;60.60;;;;;;4981185;28;20041;-57
2021/12/31 06:13:11;;;;;;;5.47;1.02;;;15.80;60.60;;;;;;4979427;28;20034;-53
2021/12/31 06:15:41;;;;;;;2.35;1.50;;;15.80;60.60;;;;;;4978862;28;20037;-57
2021/12/31 06:18:08;;;;;;;2.90;1.08;;;15.80;60.60;;;;;;4975358;28;20049;-53
2021/12/31 06:20:36;;;;;;;2.90;1.05;;;15.70;60.50;;;;;;4977532;28;20030;-53
2021/12/31 06:23:02;;;;;;;4.07;1.02;;;15.70;60.50;;;;;;4980170;28;20506;-56
2021/12/31 06:25:28;;;;;;;3.83;1.05;;;15.70;60.60;;;;;;4980646;28;20049;-56
2021/12/31 06:27:54;;;;;;;8.05;1.33;;;15.70;60.60;;;;;;4976168;28;20023;-57
2021/12/31 06:30:21;;;;;;;1.75;0.88;;;15.70;60.60;;;;;;4958969;28;20513;-56
2021/12/31 06:32:47;;;;;;;5.30;1.15;;;15.70;60.60;;;;;;4978996;28;20030;-53
2021/12/31 06:35:13;;;;;;;4.03;1.10;;;15.70;60.70;;;;;;4976329;28;20028;-55
2021/12/31 06:37:39;;;;;;;3.40;1.00;;;15.70;60.60;;;;;;4977334;28;20035;-56
2021/12/31 06:40:07;;;;;;;3.83;1.40;;;15.70;60.70;;;;;;4968682;28;20042;-55
2021/12/31 06:42:35;;;;;;;6.10;1.30;;;15.60;60.60;;;;;;4977965;28;20057;-54
2021/12/31 06:45:02;;;;;;;3.47;1.38;;;15.60;60.60;;;;;;4977991;28;20030;-57
2021/12/31 06:47:29;;;;;;;3.60;1.10;;;15.60;60.60;;;;;;4977787;28;20035;-57
2021/12/31 06:49:55;;;;;;;4.85;1.30;;;15.60;60.50;;;;;;4977538;28;20041;-54
2021/12/31 06:52:21;;;;;;;4.68;1.65;;;15.60;60.60;;;;;;4978033;28;20041;-55
2021/12/31 06:54:47;;;;;;;2.85;1.15;;;15.60;60.50;;;;;;4980425;28;20026;-56
2021/12/31 06:57:13;;;;;;;3.25;1.30;;;15.60;60.50;;;;;;4979766;28;20360;-54
2021/12/31 06:59:40;;;;;;;2.83;0.98;;;15.60;60.50;;;;;;4981076;28;20414;-53
2021/12/31 07:02:06;;;;;;;5.07;1.52;;;15.60;60.60;;;;;;4978029;28;20041;-58
2021/12/31 07:04:33;;;;;;;6.05;1.40;;;15.60;60.50;;;;;;4980446;28;20066;-57
2021/12/31 07:06:59;;;;;;;2.75;1.10;;;15.60;60.50;;;;;;4981658;28;20486;-56
2021/12/31 07:09:25;;;;;;;2.70;1.27;;;15.60;60.50;;;;;;4962700;28;20046;-55
2021/12/31 07:11:52;;;;;;;3.38;1.13;;;15.60;60.40;;;;;;4980391;28;20394;-55
2021/12/31 07:14:18;;;;;;;6.25;1.55;;;15.60;60.30;;;;;;4979291;28;20030;-55
2021/12/31 07:16:44;;;;;;;4.00;1.88;;;15.60;60.30;;;;;;4981383;28;20490;-55
2021/12/31 07:19:10;;;;;;;6.75;1.70;;;15.60;60.20;;;;;;4981940;28;20382;-55
2021/12/31 07:21:36;;;;;;;2.90;1.50;;;15.60;60.10;;;;;;4977755;28;20034;-57
2021/12/31 07:24:03;;;;;;;5.93;1.50;;;15.50;60.00;;;;;;4981898;28;20493;-56
2021/12/31 07:26:29;;;;;;;5.22;1.40;;;15.50;60.10;;;;;;4979813;28;20368;-53
2021/12/31 07:28:55;;;;;;;4.85;1.23;;;15.40;60.10;;;;;;4980938;28;20022;-57
2021/12/31 07:31:21;;;;;;;5.55;2.05;;;15.40;60.10;;;;;;4978925;28;20034;-54
2021/12/31 07:33:47;;;;;;;3.35;1.10;;;15.40;60.30;;;;;;4980289;28;20302;-57
2021/12/31 07:36:13;;;;;;;5.13;1.52;;;15.30;60.30;;;;;;4982261;28;20027;-54
2021/12/31 07:38:47;;;;;;;6.95;1.67;;;15.30;60.40;;;;;;4978909;28;20031;-57
2021/12/31 07:41:13;;;;;;;5.63;1.70;;;15.20;60.50;;;;;;4980874;28;20403;-56
2021/12/31 07:43:39;;;;;;;5.03;1.20;;;15.20;60.60;;;;;;4981664;28;20582;-57
2021/12/31 07:46:06;;;;;;;4.93;1.60;;;15.20;60.70;;;;;;4981971;28;20030;-55
2021/12/31 07:48:32;;;;;;;7.82;1.88;;;15.10;60.90;;;;;;4976615;28;20533;-55
2021/12/31 07:50:58;;;;;;;5.30;1.45;;;15.10;61.10;;;;;;4981183;28;20039;-53
2021/12/31 07:53:24;;;;;;;5.25;1.55;;;15.10;61.20;;;;;;4981978;28;20038;-55
2021/12/31 07:55:50;;;;;;;2.85;1.40;;;15.00;61.20;;;;;;4954934;28;20022;-57
2021/12/31 07:58:16;;;;;;;3.97;1.40;;;15.00;61.40;;;;;;4975955;28;20043;-56
2021/12/31 08:00:43;;;;;;;3.28;1.38;;;15.00;61.50;;;;;;4979841;28;20034;-56
2021/12/31 08:03:09;;;;;;;5.18;1.85;;;15.00;61.60;;;;;;4980567;28;20035;-57
2021/12/31 08:05:35;;;;;;;3.47;1.50;;;15.00;61.70;;;;;;4980608;28;20034;-54
2021/12/31 08:08:04;;;;;;;7.60;1.65;;;15.00;61.80;;;;;;4976507;28;20030;-55
2021/12/31 08:10:32;;;;;;;5.45;1.95;;;15.00;62.00;;;;;;4979188;28;20043;-55
2021/12/31 08:13:00;;;;;;;3.85;1.85;;;15.00;62.00;;;;;;4980433;28;20031;-54
2021/12/31 08:15:27;;;;;;;4.53;1.55;;;15.00;62.00;;;;;;4979954;28;20042;-55
2021/12/31 08:17:54;;;;;;;2.55;1.50;;;15.00;62.10;;;;;;4976743;28;20023;-57
2021/12/31 08:20:21;;;;;;;2.78;1.30;;;15.00;62.10;;;;;;4981450;28;20034;-54
2021/12/31 08:22:48;;;;;;;8.32;1.77;;;15.00;62.10;;;;;;4978246;28;20510;-56
2021/12/31 08:25:14;;;;;;;5.32;1.60;;;15.00;62.10;;;;;;4975481;28;20026;-56
2021/12/31 08:27:40;;;;;;;4.53;1.42;;;15.00;62.10;;;;;;4972102;28;20850;-56
2021/12/31 08:30:07;;;;;;;9.57;1.42;;;15.00;62.10;;;;;;4977059;28;20025;-57
2021/12/31 08:32:35;;;;;;;4.35;1.70;;;15.10;62.20;;;;;;4980155;28;20042;-57
2021/12/31 08:35:02;;;;;;;3.92;1.50;;;15.10;62.90;;;;;;4980112;28;20018;-57
2021/12/31 08:37:28;;;;;;;3.65;1.20;;;15.10;62.10;;;;;;4977154;28;20022;-57
2021/12/31 08:39:57;;;;;;;2.10;1.20;;;15.10;62.20;;;;;;4979801;28;20841;-56
2021/12/31 08:42:24;;;;;;;6.15;1.50;;;15.10;62.20;;;;;;4977847;28;20042;-57
2021/12/31 08:44:51;;;;;;;3.92;1.33;;;15.20;62.20;;;;;;4982473;28;20479;-55
2021/12/31 08:47:17;;;;;;;5.80;1.42;;;15.20;62.10;;;;;;4973007;28;20030;-55
2021/12/31 08:49:43;;;;;;;2.13;1.05;;;15.20;62.10;;;;;;4956306;28;20494;-55
2021/12/31 08:52:09;;;;;;;6.47;2.00;;;15.20;62.10;;;;;;4981461;28;20491;-54
2021/12/31 08:54:37;;;;;;;4.20;2.20;;;15.30;62.10;;;;;;4981118;28;20462;-57
2021/12/31 08:57:03;;;;;;;3.83;1.58;;;15.30;62.90;;;;;;4977100;28;20018;-54
2021/12/31 08:59:30;;;;;;;5.63;1.23;;;15.30;62.10;;;;;;4960004;28;20046;-55
2021/12/31 09:01:56;;;;;;;4.95;1.35;;;15.30;62.10;;;;;;4979396;28;20080;-57
2021/12/31 09:04:22;;;;;;;4.00;1.40;;;15.40;62.10;;;;;;4979801;28;20386;-56
2021/12/31 09:06:48;;;;;;;4.28;1.40;;;15.40;62.10;;;;;;4978495;28;20038;-54
2021/12/31 09:09:14;;;;;;;4.80;1.33;;;15.40;62.00;;;;;;4959859;28;20616;-55
2021/12/31 09:11:43;;;;;;;4.28;1.30;;;15.50;62.00;;;;;;4961386;28;20034;-55
2021/12/31 09:14:11;;;;;;;2.35;0.90;;;15.50;61.90;;;;;;4959203;28;20033;-55
2021/12/31 09:16:37;;;;;;;3.08;1.20;;;15.50;61.80;;;;;;4958849;28;20049;-54
2021/12/31 09:19:03;;;;;;;3.47;1.02;;;15.50;61.80;;;;;;4943670;28;20039;-55
2021/12/31 09:21:29;;;;;;;2.70;1.23;;;15.50;61.60;;;;;;4961004;28;20021;-55
2021/12/31 09:23:56;;;;;;;3.75;1.35;;;15.60;61.60;;;;;;4960951;28;20026;-57
2021/12/31 09:26:22;;;;;;;2.88;1.20;;;15.50;61.50;;;;;;4960901;28;20034;-53
2021/12/31 09:28:48;;;;;;;4.32;1.60;;;15.60;61.60;;;;;;4961171;28;20502;-54
2021/12/31 09:31:14;;;;;;;2.28;1.30;;;15.60;61.50;;;;;;4961063;28;20035;-57
2021/12/31 09:33:41;;;;;;;2.75;1.15;;;15.60;61.40;;;;;;4939485;28;20042;-55
2021/12/31 09:36:07;;;;;;;3.30;0.98;;;15.60;61.40;;;;;;4961901;28;20030;-54
2021/12/31 09:38:33;;;;;;;3.47;1.00;;;15.60;61.40;;;;;;4960175;28;20038;-56
2021/12/31 09:40:59;;;;;;;2.05;1.27;;;15.60;61.30;;;;;;4962287;28;20055;-54
2021/12/31 09:43:25;;;;;;;4.07;1.10;;;15.70;61.40;;;;;;4974766;28;20506;-54
2021/12/31 09:45:53;;;;;;;3.03;1.30;;;15.70;61.50;;;;;;4959628;28;20038;-53
2021/12/31 09:48:22;;;;;;;3.13;1.13;;;15.70;61.50;;;;;;4960296;28;20038;-54
2021/12/31 09:50:50;;;;;;;3.38;1.33;;;15.70;61.30;;;;;;4961298;28;20018;-54
2021/12/31 09:53:18;;;;;;;2.53;0.95;;;15.70;61.30;;;;;;4956458;28;20038;-54
2021/12/31 09:55:46;;;;;;;3.03;1.10;;;15.70;61.40;;;;;;4941621;28;20042;-54
2021/12/31 09:58:14;;;;;;;4.80;0.90;;;15.80;61.40;;;;;;4958851;28;20408;-55
2021/12/31 10:00:43;;;;;;;1.63;1.10;;;15.70;61.20;;;;;;4961142;28;20031;-56
2021/12/31 10:03:24;;;;;;;2.47;1.00;;;15.80;61.30;;;;;;4957241;28;20038;-53
2021/12/31 10:05:53;;;;;;;2.95;1.20;;;15.80;61.10;;;;;;4960017;28;20379;-53
2021/12/31 10:08:28;;;;;;;1.58;1.20;;;15.80;61.10;;;;;;4957583;28;20038;-55
2021/12/31 10:11:07;;;;;;;2.78;1.23;;;15.80;61.00;;;;;;4961254;28;20046;-51
2021/12/31 10:13:35;;;;;;;2.20;1.27;;;15.90;61.00;;;;;;4959354;28;20431;-53
2021/12/31 10:16:02;;;;;;;2.63;1.05;;;15.90;61.00;;;;;;4960601;28;20054;-56
2021/12/31 10:18:32;;;;;;;1.67;0.90;;;15.90;61.00;;;;;;4958879;28;20036;-54
2021/12/31 10:20:59;;;;;;;2.90;1.08;;;15.90;60.90;;;;;;4960697;28;20026;-55
2021/12/31 10:23:26;;;;;;;4.30;1.02;;;15.90;60.80;;;;;;4958116;28;20475;-54
2021/12/31 10:26:06;;;;;;;3.45;1.10;;;15.90;60.80;;;;;;4956914;28;20042;-54
2021/12/31 10:28:32;;;;;;;4.03;1.10;;;16.00;60.70;;;;;;4960212;28;20045;-54
2021/12/31 10:31:12;;;;;;;3.85;0.90;;;16.00;60.70;;;;;;4958346;28;20035;-53
2021/12/31 10:33:43;;;;;;;3.05;1.27;;;16.00;60.80;;;;;;4957192;28;20047;-54
2021/12/31 10:36:29;;;;;;;5.70;1.73;;;16.00;60.70;;;;;;4962810;28;20250;-53
2021/12/31 10:38:55;;;;;;;2.20;1.33;;;16.00;60.60;;;;;;4973227;28;20350;-54
2021/12/31 10:41:22;;;;;;;6.03;2.45;;;16.10;60.70;;;;;;4964191;28;20026;-53
2021/12/31 10:43:58;;;;;;;4.55;2.00;;;16.10;60.60;;;;;;4963556;28;20023;-57
2021/12/31 10:46:24;;;;;;;6.25;2.65;;;16.10;60.60;;;;;;4961926;28;20027;-56
2021/12/31 10:48:54;;;;;;;4.95;2.42;;;16.10;60.70;;;;;;4963341;28;20613;-54
2021/12/31 10:51:40;;;;;;;6.53;2.58;;;16.10;60.60;;;;;;4965080;28;20027;-54
2021/12/31 10:54:44;;;;;;;6.30;2.60;;;16.10;60.40;;;;;;4962754;28;20042;-54
2021/12/31 10:57:10;;;;;;;7.22;2.20;;;16.10;60.40;;;;;;4959488;28;20043;-55
2021/12/31 10:59:37;;;;;;;4.22;2.05;;;16.20;60.50;;;;;;4962417;28;20026;-54
2021/12/31 11:02:08;;;;;;;4.28;1.73;;;16.20;60.60;;;;;;4963185;28;20536;-54
2021/12/31 11:04:35;;;;;;;3.08;1.55;;;16.20;60.40;;;;;;4964224;28;20498;-54
2021/12/31 11:07:02;;;;;;;3.72;1.60;;;16.20;60.50;;;;;;4945490;28;20039;-57
2021/12/31 11:09:32;;;;;;;2.45;1.17;;;16.20;60.70;;;;;;4964177;28;20029;-54
2021/12/31 11:12:00;;;;;;;2.05;0.98;;;16.20;60.70;;;;;;4962620;28;20043;-52
2021/12/31 11:14:27;;;;;;;2.85;1.60;;;16.20;60.60;;;;;;4963760;28;20050;-57
2021/12/31 11:16:53;;;;;;;2.28;1.10;;;16.30;60.70;;;;;;4953181;28;20023;-55
2021/12/31 11:19:19;;;;;;;2.88;1.63;;;16.30;60.60;;;;;;4949197;28;20562;-54
2021/12/31 11:21:48;;;;;;;1.95;1.05;;;16.30;60.40;;;;;;4959486;28;20486;-51
2021/12/31 11:24:37;;;;;;;1.27;1.02;;;16.30;60.40;;;;;;4930024;28;20039;-55
2021/12/31 11:27:25;;;;;;;2.60;1.20;;;16.40;60.30;;;;;;4954876;28;20490;-55
2021/12/31 11:29:51;;;;;;;5.22;1.13;;;16.40;60.20;;;;;;4952507;28;20030;-55
2021/12/31 11:32:18;;;;;;;2.45;1.08;;;16.40;60.30;;;;;;4951094;28;20104;-55
2021/12/31 11:35:04;;;;;;;2.35;1.13;;;16.40;60.30;;;;;;4944913;28;20387;-54
2021/12/31 11:37:49;;;;;;;2.70;1.00;;;16.40;60.30;;;;;;4938535;28;20108;-55
2021/12/31 11:40:28;;;;;;;;;;;16.40;59.90;;;;;;4951773;28;20490;-54
2021/12/31 11:43:19;;;;;;;2.33;0.80;;;16.50;60.20;;;;;;4943034;28;19917;-54
2021/12/31 11:46:21;;;;;;;3.83;1.00;;;16.50;59.70;;;;;;4942825;28;20097;-54
2021/12/31 11:48:52;;;;;;;1.33;0.82;;;16.50;59.50;;;;;;4945713;28;20038;-55
2021/12/31 11:51:34;;;;;;;3.08;1.10;;;16.50;59.40;;;;;;4942592;28;20042;-55
2021/12/31 11:54:01;;;;;;;2.58;1.00;;;16.50;59.40;;;;;;4944994;28;20497;-54
2021/12/31 11:56:35;;;;;;;5.97;1.10;;;16.50;59.50;;;;;;4947104;28;20371;-56
2021/12/31 11:59:07;;;;;;;2.30;1.27;;;16.50;59.30;;;;;;4942602;28;20023;-57
2021/12/31 12:01:36;;;;;;;3.05;1.40;;;16.50;59.20;;;;;;4944765;28;20586;-53
2021/12/31 12:04:28;;;;;;;3.85;1.50;;;16.50;59.20;;;;;;4960519;28;20054;-57
2021/12/31 12:17:08;;;;;;;6.30;1.70;;;16.50;58.80;;;;;;4995877;23;20053;-54
2021/12/31 12:19:47;;;;;;;4.38;2.25;;;16.50;59.20;;;;;;4964063;28;20043;-54
2021/12/31 12:22:41;;;;;;;2.50;1.45;;;16.40;59.00;;;;;;4963729;28;20037;-54
2021/12/31 12:25:16;;;;;;;3.53;1.83;;;16.50;59.20;;;;;;4936454;28;20046;-54
2021/12/31 12:27:45;;;;;;;3.17;1.38;;;16.50;59.40;;;;;;4962332;28;20038;-52
2021/12/31 12:30:12;;;;;;;3.33;1.70;;;16.50;59.50;;;;;;4963909;28;20399;-55
2021/12/31 12:35:33;;;;;;;3.08;1.38;;;16.50;59.60;;;;;;4968759;28;20467;-53
2021/12/31 12:38:02;;;;;;;2.67;1.33;;;16.60;59.60;;;;;;4962624;28;20026;-51
2021/12/31 12:40:54;;;;;;;2.95;1.20;;;16.60;59.70;;;;;;4941109;29;20050;-54
2021/12/31 12:43:35;;;;;;;9.63;1.40;;;16.60;59.50;;;;;;4950338;28;20034;-54
2021/12/31 12:46:04;;;;;;;9.50;1.63;;;16.70;59.60;;;;;;4961625;28;20042;-53
2021/12/31 12:48:42;;;;;;;2.38;1.33;;;16.70;59.50;;;;;;4961088;28;20580;-53
2021/12/31 12:51:11;;;;;;;1.58;1.13;;;16.70;59.60;;;;;;4943355;28;20038;-55
2021/12/31 12:53:41;;;;;;;2.30;1.00;;;16.80;59.70;;;;;;4959704;28;20046;-55
2021/12/31 12:56:23;;;;;;;3.67;1.08;;;16.80;59.60;;;;;;4961002;28;20450;-54
2021/12/31 12:58:58;;;;;;;3.67;0.90;;;16.90;59.60;;;;;;4961875;28;20088;-52
2021/12/31 13:01:41;;;;;;;2.00;1.10;;;16.90;59.40;;;;;;4962247;28;20019;-54
2021/12/31 13:04:10;;;;;;;1.52;0.98;;;16.90;59.30;;;;;;4941676;28;20042;-57
2021/12/31 13:06:37;;;;;;;4.05;1.13;;;17.00;59.30;;;;;;4961777;28;20390;-51
2021/12/31 13:09:07;;;;;;;2.05;0.90;;;17.00;59.30;;;;;;4960557;28;20043;-56
2021/12/31 13:11:37;;;;;;;3.38;1.10;;;17.00;59.20;;;;;;4956123;28;20035;-54
2021/12/31 13:14:09;;;;;;;4.18;0.93;;;17.00;59.10;;;;;;4959428;28;20504;-56